Framingham, Massachusetts
Current Conditions -  °F | °C
As of 10:53 PM on Tuesday 27 Jan 2015 (Local Time) from KOWD Reporting Station
Light Snow Light Snow  
Wind Chill:   Ceiling: 4200
Heat Index: 14°   Visibility: 5mi
Dew Point:   Wind: 10mph
Humidity: 71%   Direction: 320°NW
Pressure: 29.66"   Gusts: NA
Location:  42.28°N, 71.42°W
Report Text: KOWD 280353Z AUTO 32009KT 5SM -SN OVC042 M10/M14 A2966 RMK AO2 SLP043 P0000 T11001144 $
Loading
Personal Weather Stations






























Interactive Weather Map New forecast layout! Learn more

10-Day Weather Forecast

Advertisements
Track Severe Weather on mobile